createdAt,value
2023-05-02T00:01:13.988Z,5.97
2023-05-02T00:03:51.264Z,6.73
2023-05-02T00:06:26.015Z,5.57
2023-05-02T00:08:55.484Z,4.73
2023-05-02T00:11:24.683Z,5.17
2023-05-02T00:13:54.974Z,5.23
2023-05-02T00:16:25.190Z,4.43
2023-05-02T00:18:55.656Z,5.53
2023-05-02T00:21:29.336Z,5.83
2023-05-02T00:24:02.505Z,4.77
2023-05-02T00:26:34.993Z,6.30
2023-05-02T00:29:03.901Z,5.73
2023-05-02T00:31:32.512Z,5.60
2023-05-02T00:34:13.683Z,6.00
2023-05-02T00:36:49.298Z,6.00
2023-05-02T00:39:20.237Z,6.60
2023-05-02T00:41:48.457Z,5.40
2023-05-02T00:44:18.014Z,6.53
2023-05-02T00:46:47.603Z,5.83
2023-05-02T00:49:18.899Z,5.90
2023-05-02T00:52:02.616Z,6.30
2023-05-02T00:54:32.286Z,5.70
2023-05-02T00:57:00.409Z,5.70
2023-05-02T00:59:42.858Z,5.10
2023-05-02T01:02:32.757Z,6.73
2023-05-02T01:05:13.491Z,6.10
2023-05-02T01:08:05.964Z,7.50
2023-05-02T01:10:47.557Z,5.73
2023-05-02T01:13:28.216Z,5.40
2023-05-02T01:16:02.776Z,7.10
2023-05-02T01:18:34.656Z,6.53
2023-05-02T01:21:09.854Z,5.80
2023-05-02T01:23:50.263Z,6.03
2023-05-02T01:26:28.812Z,7.63
2023-05-02T01:29:16.155Z,8.57
2023-05-02T01:31:50.653Z,9.50
2023-05-02T01:34:21.768Z,8.13
2023-05-02T01:36:51.874Z,8.93
2023-05-02T01:39:22.762Z,9.23
2023-05-02T01:42:13.252Z,9.33
2023-05-02T01:44:47.139Z,7.83
2023-05-02T01:47:18.768Z,8.50
2023-05-02T01:49:53.531Z,8.40
2023-05-02T01:52:25.773Z,11.70
2023-05-02T01:54:57.793Z,9.13
2023-05-02T01:57:29.210Z,8.30
2023-05-02T02:00:04.342Z,9.30
2023-05-02T02:02:56.609Z,9.10
2023-05-02T02:05:28.538Z,9.57
2023-05-02T02:07:56.611Z,10.63
2023-05-02T02:10:28.901Z,10.53
2023-05-02T02:13:09.134Z,10.60
2023-05-02T02:15:39.965Z,8.97
2023-05-02T02:18:12.084Z,9.27
2023-05-02T02:20:47.399Z,9.37
2023-05-02T02:23:19.642Z,9.07
2023-05-02T02:25:51.237Z,9.37
2023-05-02T02:28:23.406Z,8.83
2023-05-02T02:31:00.425Z,8.13
2023-05-02T02:33:41.909Z,9.00
2023-05-02T02:36:18.547Z,8.70
2023-05-02T02:39:01.552Z,8.97
2023-05-02T02:41:39.450Z,8.33
2023-05-02T02:44:25.064Z,9.50
2023-05-02T02:47:06.021Z,9.10
2023-05-02T02:49:44.400Z,7.70
2023-05-02T02:52:20.134Z,7.90
2023-05-02T02:54:52.849Z,8.60
2023-05-02T02:57:37.010Z,8.43
2023-05-02T03:00:13.242Z,8.87
2023-05-02T03:02:48.444Z,7.97
2023-05-02T03:05:30.660Z,8.50
2023-05-02T03:08:06.353Z,7.33
2023-05-02T03:10:38.297Z,7.73
2023-05-02T03:13:09.531Z,8.67
2023-05-02T03:16:16.479Z,8.63
2023-05-02T03:18:57.716Z,9.50
2023-05-02T03:21:31.722Z,9.40
2023-05-02T03:24:06.886Z,9.27
2023-05-02T03:26:39.006Z,10.17
2023-05-02T03:29:13.083Z,9.40
2023-05-02T03:31:46.671Z,8.30
2023-05-02T03:34:22.340Z,10.10
2023-05-02T03:36:54.683Z,9.77
2023-05-02T03:39:26.036Z,10.07
2023-05-02T03:41:57.750Z,11.00
2023-05-02T03:44:35.628Z,9.90
2023-05-02T03:47:11.999Z,9.17
2023-05-02T03:49:47.879Z,11.33
2023-05-02T03:52:28.592Z,9.57
2023-05-02T03:55:00.098Z,9.50
2023-05-02T03:57:33.969Z,9.97
2023-05-02T04:00:05.974Z,10.63
2023-05-02T04:02:43.511Z,11.10
2023-05-02T04:05:18.310Z,10.60
2023-05-02T04:07:50.001Z,10.30
2023-05-02T04:10:22.727Z,11.03
2023-05-02T04:13:05.428Z,10.40
2023-05-02T04:15:44.171Z,10.67
2023-05-02T04:18:19.436Z,11.40
2023-05-02T04:20:52.778Z,11.57
2023-05-02T04:23:28.107Z,10.93
2023-05-02T04:26:01.883Z,10.33
2023-05-02T04:28:51.500Z,11.53
2023-05-02T04:31:23.382Z,10.20
2023-05-02T04:33:56.152Z,9.90
2023-05-02T04:36:32.831Z,9.57
2023-05-02T04:39:07.810Z,11.00
2023-05-02T04:41:51.996Z,15.27
2023-05-02T04:44:29.935Z,10.10
2023-05-02T04:47:02.059Z,11.47
2023-05-02T04:49:32.869Z,11.13
2023-05-02T04:52:11.725Z,10.40
2023-05-02T04:54:48.854Z,10.07
2023-05-02T04:57:23.338Z,9.77
2023-05-02T04:59:59.179Z,10.30
2023-05-02T05:02:29.832Z,10.33
2023-05-02T05:05:13.854Z,9.10
2023-05-02T05:07:47.845Z,8.83
2023-05-02T05:10:27.556Z,10.33
2023-05-02T05:12:58.030Z,10.67
2023-05-02T05:15:27.493Z,11.43
2023-05-02T05:18:04.905Z,10.60
2023-05-02T05:20:35.147Z,7.90
2023-05-02T05:23:08.411Z,10.30
2023-05-02T05:25:45.529Z,9.33
2023-05-02T05:28:18.978Z,9.07
2023-05-02T05:30:57.719Z,9.10
2023-05-02T05:33:29.454Z,9.80
2023-05-02T05:36:08.041Z,9.50
2023-05-02T05:38:54.005Z,10.70
2023-05-02T05:41:24.941Z,10.47
2023-05-02T05:44:09.494Z,10.40
2023-05-02T05:46:41.213Z,10.33
2023-05-02T05:49:15.625Z,10.90
2023-05-02T05:51:44.638Z,11.97
2023-05-02T05:54:19.456Z,11.70
2023-05-02T05:56:51.426Z,11.53
2023-05-02T05:59:25.304Z,11.30
2023-05-02T06:02:02.381Z,10.27
2023-05-02T06:04:33.537Z,11.53
2023-05-02T06:07:07.855Z,11.33
2023-05-02T06:09:42.212Z,10.47
2023-05-02T06:12:21.861Z,11.03
2023-05-02T06:14:57.176Z,9.23
2023-05-02T06:17:31.209Z,10.53
2023-05-02T06:20:00.511Z,10.50
2023-05-02T06:22:31.473Z,14.80
2023-05-02T06:25:02.165Z,9.90
2023-05-02T06:27:32.302Z,10.80
2023-05-02T06:30:04.316Z,10.13
2023-05-02T06:32:44.445Z,12.80
2023-05-02T06:35:12.998Z,11.70
2023-05-02T06:37:42.325Z,10.10
2023-05-02T06:40:16.143Z,12.43
2023-05-02T06:42:54.227Z,12.17
2023-05-02T06:45:23.258Z,9.73
2023-05-02T06:47:52.765Z,9.80
2023-05-02T06:50:22.068Z,12.37
2023-05-02T06:52:51.649Z,9.87
2023-05-02T06:55:21.409Z,10.10
2023-05-02T06:57:53.045Z,10.00
2023-05-02T07:00:22.282Z,10.47
2023-05-02T07:03:00.714Z,11.17
2023-05-02T07:05:29.345Z,13.53
2023-05-02T07:07:57.373Z,10.87
2023-05-02T07:10:29.145Z,9.03
2023-05-02T07:13:00.013Z,9.80
2023-05-02T07:15:28.901Z,8.53
2023-05-02T07:17:57.475Z,10.10
2023-05-02T07:20:30.120Z,9.27
2023-05-02T07:22:59.412Z,8.00
2023-05-02T07:25:31.640Z,8.33
2023-05-02T07:28:03.612Z,9.50
2023-05-02T07:30:37.527Z,9.37
2023-05-02T07:33:05.590Z,8.77
2023-05-02T07:35:36.676Z,7.67
2023-05-02T07:38:07.425Z,11.97
2023-05-02T07:40:39.504Z,9.03
2023-05-02T07:43:11.021Z,8.53
2023-05-02T07:45:56.340Z,11.87
2023-05-02T07:48:27.885Z,7.77
2023-05-02T07:50:57.280Z,7.90
2023-05-02T07:53:28.997Z,13.40
2023-05-02T07:56:01.161Z,9.00
2023-05-02T07:58:30.739Z,7.93
2023-05-02T08:01:04.151Z,9.17
2023-05-02T08:03:34.708Z,9.00
2023-05-02T08:06:04.629Z,7.70
2023-05-02T08:08:32.711Z,11.83
2023-05-02T08:11:06.669Z,8.00
2023-05-02T08:13:36.104Z,7.73
2023-05-02T08:16:08.890Z,9.93
2023-05-02T08:18:37.042Z,7.13
2023-05-02T08:21:11.009Z,7.90
2023-05-02T08:23:47.353Z,8.60
2023-05-02T08:26:24.825Z,7.77
2023-05-02T08:28:54.841Z,8.00
2023-05-02T08:31:28.719Z,7.97
2023-05-02T08:34:00.659Z,7.40
2023-05-02T08:36:31.420Z,7.63
2023-05-02T08:39:07.428Z,7.87
2023-05-02T08:41:45.177Z,7.77
2023-05-02T08:44:16.972Z,7.80
2023-05-02T08:46:45.261Z,8.07
2023-05-02T08:49:23.842Z,6.90
2023-05-02T08:51:54.837Z,8.87
2023-05-02T08:54:27.296Z,6.43
2023-05-02T08:57:04.484Z,6.33
2023-05-02T08:59:35.071Z,7.63
2023-05-02T09:02:12.107Z,6.30
2023-05-02T09:04:44.699Z,8.10
2023-05-02T09:07:18.668Z,6.60
2023-05-02T09:09:48.462Z,7.03
2023-05-02T09:12:27.632Z,7.17
2023-05-02T09:15:14.892Z,9.37
2023-05-02T09:17:44.201Z,11.30
2023-05-02T09:20:16.102Z,6.63
2023-05-02T09:22:51.140Z,6.77
2023-05-02T09:25:26.743Z,6.63
2023-05-02T09:28:04.309Z,8.63
2023-05-02T09:30:36.608Z,7.00
2023-05-02T09:33:14.707Z,5.80
2023-05-02T09:35:57.680Z,5.70
2023-05-02T09:38:27.437Z,5.97
2023-05-02T09:41:00.180Z,6.40
2023-05-02T09:43:38.274Z,6.63
2023-05-02T09:46:16.994Z,7.97
2023-05-02T09:48:54.759Z,6.80
2023-05-02T09:51:46.647Z,7.10
2023-05-02T09:54:16.407Z,6.17
2023-05-02T09:56:57.525Z,5.80
2023-05-02T09:59:27.535Z,6.30
2023-05-02T10:01:58.319Z,5.53
2023-05-02T10:04:28.634Z,7.83
2023-05-02T10:07:05.730Z,7.00
2023-05-02T10:09:37.533Z,7.63
2023-05-02T10:12:08.635Z,8.30
2023-05-02T10:14:44.605Z,7.60
2023-05-02T10:17:16.549Z,7.93
2023-05-02T10:19:58.979Z,6.80
2023-05-02T10:22:37.169Z,7.80
2023-05-02T10:25:06.251Z,12.80
2023-05-02T10:27:37.816Z,8.23
2023-05-02T10:30:11.014Z,9.63
2023-05-02T10:32:40.875Z,8.83
2023-05-02T10:35:17.099Z,9.23
2023-05-02T10:37:49.657Z,8.53
2023-05-02T10:40:20.484Z,7.87
2023-05-02T10:43:00.527Z,7.80
2023-05-02T10:45:37.678Z,8.60
2023-05-02T10:48:30.224Z,9.10
2023-05-02T10:51:02.874Z,8.67
2023-05-02T10:53:38.940Z,10.60
2023-05-02T10:56:29.820Z,8.97
2023-05-02T10:59:30.994Z,9.73
2023-05-02T11:02:05.282Z,12.07
2023-05-02T11:05:13.678Z,11.97
2023-05-02T11:07:48.042Z,10.40
2023-05-02T11:10:29.302Z,9.93
2023-05-02T11:13:01.315Z,10.83
2023-05-02T11:16:01.761Z,10.83
2023-05-02T11:19:03.056Z,10.13
2023-05-02T11:21:33.207Z,10.57
2023-05-02T11:24:38.995Z,9.70
2023-05-02T11:27:43.963Z,11.63
2023-05-02T11:30:13.768Z,12.17
2023-05-02T11:33:20.097Z,10.50
2023-05-02T11:35:53.007Z,9.93
2023-05-02T11:38:24.632Z,9.67
2023-05-02T11:41:06.349Z,12.23
2023-05-02T11:46:29.343Z,10.07
2023-05-02T11:48:59.005Z,9.60
2023-05-02T11:51:32.247Z,9.73
2023-05-02T11:54:06.376Z,10.87
2023-05-02T11:56:36.014Z,10.43
2023-05-02T11:59:14.438Z,10.50
2023-05-02T12:01:49.946Z,9.73
2023-05-02T12:04:23.895Z,9.17
2023-05-02T12:07:05.059Z,9.90
2023-05-02T12:09:37.386Z,10.30
2023-05-02T12:12:07.762Z,9.17
2023-05-02T12:14:41.198Z,10.23
2023-05-02T12:17:10.623Z,8.67
2023-05-02T12:19:41.860Z,8.67
2023-05-02T12:22:18.863Z,9.10
2023-05-02T12:24:49.298Z,9.60
2023-05-02T12:27:21.485Z,10.33
2023-05-02T12:29:54.115Z,9.47
2023-05-02T12:32:30.288Z,10.63
2023-05-02T12:35:02.226Z,8.67
2023-05-02T12:37:33.932Z,10.83
2023-05-02T12:40:02.494Z,9.50
2023-05-02T12:42:35.076Z,9.90
2023-05-02T12:45:08.473Z,9.90
2023-05-02T12:47:49.854Z,8.87
2023-05-02T12:50:24.827Z,12.33
2023-05-02T12:52:59.307Z,9.63
2023-05-02T12:55:34.532Z,8.53
2023-05-02T12:58:03.820Z,10.63
2023-05-02T13:00:33.199Z,8.73
2023-05-02T13:03:04.090Z,9.70
2023-05-02T13:05:33.722Z,10.73
2023-05-02T13:08:10.473Z,14.40
2023-05-02T13:10:46.626Z,32.33
2023-05-02T13:13:26.570Z,11.13
2023-05-02T13:15:56.425Z,9.10
2023-05-02T13:18:28.121Z,10.77
2023-05-02T13:20:56.386Z,10.40
2023-05-02T13:23:26.367Z,8.27
2023-05-02T13:26:00.589Z,9.10
2023-05-02T13:28:35.955Z,11.00
2023-05-02T13:31:05.321Z,10.57
2023-05-02T13:33:35.619Z,11.37
2023-05-02T13:36:06.544Z,11.23
2023-05-02T13:38:45.868Z,12.00
2023-05-02T13:41:15.454Z,12.33
2023-05-02T13:43:46.453Z,11.80
2023-05-02T13:46:20.871Z,14.90
2023-05-02T13:49:01.631Z,11.67
2023-05-02T13:51:44.040Z,11.93
2023-05-02T13:54:17.089Z,11.77
2023-05-02T13:56:46.760Z,11.27
2023-05-02T13:59:17.127Z,12.83
2023-05-02T14:01:47.633Z,12.80
2023-05-02T14:04:20.938Z,11.57
2023-05-02T14:06:51.753Z,12.50
2023-05-02T14:09:26.681Z,12.10
2023-05-02T14:12:04.091Z,11.20
2023-05-02T14:14:33.752Z,11.30
2023-05-02T14:17:06.364Z,12.17
2023-05-02T14:19:36.605Z,12.70
2023-05-02T14:22:08.619Z,11.67
2023-05-02T14:24:41.510Z,11.50
2023-05-02T14:27:14.077Z,12.57
2023-05-02T14:29:43.532Z,12.57
2023-05-02T14:32:13.231Z,11.00
2023-05-02T14:34:50.734Z,12.33
2023-05-02T14:37:24.258Z,11.67
2023-05-02T14:39:56.785Z,13.10
2023-05-02T14:42:28.320Z,13.00
2023-05-02T14:45:04.680Z,12.70
2023-05-02T14:47:34.077Z,12.73
2023-05-02T14:50:05.379Z,13.23
2023-05-02T14:52:40.269Z,12.03
2023-05-02T14:55:14.416Z,11.70
2023-05-02T14:57:45.604Z,16.60
2023-05-02T15:00:16.480Z,10.47
2023-05-02T15:02:53.931Z,12.60
2023-05-02T15:05:25.588Z,13.40
2023-05-02T15:07:56.557Z,11.90
2023-05-02T15:10:40.554Z,12.00
2023-05-02T15:13:08.981Z,11.30
2023-05-02T15:15:38.780Z,13.20
2023-05-02T15:18:10.494Z,14.80
2023-05-02T15:20:49.528Z,11.90
2023-05-02T15:23:20.134Z,12.37
2023-05-02T15:25:51.662Z,12.87
2023-05-02T15:28:20.224Z,12.37
2023-05-02T15:30:52.511Z,11.43
2023-05-02T15:33:22.012Z,11.90
2023-05-02T15:36:02.548Z,12.03
2023-05-02T15:38:38.713Z,12.87
2023-05-02T15:41:20.255Z,12.03
2023-05-02T15:43:50.679Z,12.30
2023-05-02T15:46:20.531Z,11.87
2023-05-02T15:48:51.221Z,11.87
2023-05-02T15:51:21.606Z,11.40
2023-05-02T15:53:55.665Z,12.33
2023-05-02T15:56:26.612Z,11.53
2023-05-02T15:59:04.382Z,12.60
2023-05-02T16:01:32.739Z,11.90
2023-05-02T16:04:06.327Z,10.57
2023-05-02T16:06:37.291Z,10.60
2023-05-02T16:09:11.078Z,10.87
2023-05-02T16:11:47.015Z,11.47
2023-05-02T16:14:18.662Z,11.00
2023-05-02T16:16:46.998Z,11.63
2023-05-02T16:19:15.348Z,12.23
2023-05-02T16:21:43.703Z,16.90
2023-05-02T16:24:20.204Z,11.50
2023-05-02T16:27:07.724Z,13.40
2023-05-02T16:29:41.148Z,13.77
2023-05-02T16:32:10.102Z,13.77
2023-05-02T16:34:41.740Z,14.53
2023-05-02T16:37:16.380Z,13.17
2023-05-02T16:39:51.902Z,15.13
2023-05-02T16:42:32.850Z,14.73
2023-05-02T16:45:06.658Z,15.60
2023-05-02T16:47:38.575Z,13.57
2023-05-02T16:50:08.198Z,14.47
2023-05-02T16:52:42.088Z,15.00
2023-05-02T16:55:13.905Z,15.37
2023-05-02T16:57:45.084Z,16.23
2023-05-02T17:00:17.752Z,15.30
2023-05-02T17:02:48.056Z,14.03
2023-05-02T17:05:27.458Z,15.03
2023-05-02T17:08:00.135Z,14.37
2023-05-02T17:10:31.593Z,14.77
2023-05-02T17:13:18.188Z,15.40
2023-05-02T17:15:49.618Z,15.70
2023-05-02T17:18:33.163Z,16.40
2023-05-02T17:21:04.057Z,14.93
2023-05-02T17:23:42.066Z,14.10
2023-05-02T17:26:16.852Z,15.80
2023-05-02T17:29:07.897Z,14.60
2023-05-02T17:31:45.778Z,15.30
2023-05-02T17:34:16.258Z,16.73
2023-05-02T17:36:50.472Z,15.87
2023-05-02T17:39:21.033Z,15.37
2023-05-02T17:41:51.025Z,14.80
2023-05-02T17:44:36.334Z,15.37
2023-05-02T17:47:30.294Z,15.63
2023-05-02T17:50:14.566Z,16.20
2023-05-02T17:52:47.794Z,17.60
2023-05-02T17:55:28.361Z,16.70
2023-05-02T17:58:00.330Z,16.47
2023-05-02T18:00:40.854Z,17.60
2023-05-02T18:03:10.786Z,15.03
2023-05-02T18:05:51.836Z,13.20
2023-05-02T18:08:24.736Z,13.30
2023-05-02T18:10:56.583Z,13.33
2023-05-02T18:13:37.459Z,10.93
2023-05-02T18:16:13.452Z,11.63
2023-05-02T18:18:59.835Z,10.57
2023-05-02T18:21:35.950Z,11.30
2023-05-02T18:24:07.043Z,11.63
2023-05-02T18:26:36.015Z,10.43
2023-05-02T18:29:09.893Z,12.43
2023-05-02T18:31:59.395Z,12.23
2023-05-02T18:34:32.879Z,12.30
2023-05-02T18:37:11.458Z,12.17
2023-05-02T18:39:42.400Z,10.60
2023-05-02T18:42:17.530Z,8.77
2023-05-02T18:44:46.142Z,9.23
2023-05-02T18:47:18.322Z,8.80
2023-05-02T18:49:51.026Z,7.67
2023-05-02T18:52:21.859Z,7.77
2023-05-02T18:55:09.894Z,10.47
2023-05-02T18:57:40.680Z,11.90
2023-05-02T19:00:25.550Z,9.33
2023-05-02T19:03:00.595Z,10.03
2023-05-02T19:05:38.327Z,9.37
2023-05-02T19:08:30.658Z,9.40
2023-05-02T19:11:00.910Z,9.20
2023-05-02T19:13:34.116Z,8.77
2023-05-02T19:16:21.161Z,9.70
2023-05-02T19:19:14.098Z,10.40
2023-05-02T19:21:53.658Z,11.30
2023-05-02T19:24:34.806Z,10.37
2023-05-02T19:27:12.379Z,12.00
2023-05-02T19:29:51.859Z,12.13
2023-05-02T19:32:29.046Z,13.50
2023-05-02T19:35:04.971Z,13.20
2023-05-02T19:37:36.897Z,13.30
2023-05-02T19:40:17.603Z,12.80
2023-05-02T19:45:44.953Z,14.43
2023-05-02T19:48:29.904Z,13.90
2023-05-02T19:51:25.629Z,16.23
2023-05-02T19:53:58.927Z,13.73
2023-05-02T19:56:42.151Z,14.87
2023-05-02T19:59:13.632Z,14.00
2023-05-02T20:01:44.736Z,15.73
2023-05-02T20:04:28.094Z,15.90
2023-05-02T20:07:18.031Z,14.97
2023-05-02T20:09:57.164Z,13.43
2023-05-02T20:12:25.925Z,14.60
2023-05-02T20:14:56.050Z,14.80
2023-05-02T20:17:26.568Z,13.57
2023-05-02T20:20:07.675Z,12.53
2023-05-02T20:22:40.454Z,13.60
2023-05-02T20:25:15.981Z,14.40
2023-05-02T20:27:45.351Z,11.77
2023-05-02T20:30:22.439Z,12.17
2023-05-02T20:32:53.435Z,12.90
2023-05-02T20:35:31.472Z,11.97
2023-05-02T20:38:04.430Z,11.70
2023-05-02T20:40:42.954Z,12.37
2023-05-02T20:43:16.064Z,12.93
2023-05-02T20:45:48.110Z,12.10
2023-05-02T20:48:19.979Z,12.27
2023-05-02T20:50:57.202Z,12.43
2023-05-02T20:53:38.046Z,12.27
2023-05-02T20:56:08.523Z,14.93
2023-05-02T20:58:40.461Z,12.60
2023-05-02T21:01:11.655Z,14.27
2023-05-02T21:03:49.344Z,13.70
2023-05-02T21:06:27.496Z,13.57
2023-05-02T21:09:06.131Z,14.13
2023-05-02T21:11:36.898Z,15.93
2023-05-02T21:14:05.253Z,14.60
2023-05-02T21:16:42.843Z,14.13
2023-05-02T21:19:15.326Z,14.90
2023-05-02T21:21:50.797Z,14.07
2023-05-02T21:24:41.491Z,14.30
2023-05-02T21:27:12.374Z,22.83
2023-05-02T21:29:42.032Z,17.13
2023-05-02T21:32:12.493Z,14.23
2023-05-02T21:34:47.182Z,16.60
2023-05-02T21:37:30.394Z,15.27
2023-05-02T21:40:07.386Z,14.43
2023-05-02T21:42:39.012Z,14.90
2023-05-02T21:45:13.620Z,14.13
2023-05-02T21:47:44.937Z,14.00
2023-05-02T21:50:14.185Z,18.97
2023-05-02T21:52:49.190Z,16.07
2023-05-02T21:55:23.819Z,12.87
2023-05-02T21:58:02.936Z,14.00
2023-05-02T22:00:35.602Z,12.77
2023-05-02T22:03:11.060Z,13.93
2023-05-02T22:05:42.313Z,13.53
2023-05-02T22:08:20.526Z,12.87
2023-05-02T22:10:53.237Z,13.03
2023-05-02T22:13:24.046Z,12.83
2023-05-02T22:15:53.161Z,14.70
2023-05-02T22:18:23.580Z,13.33
2023-05-02T22:20:52.881Z,14.57
2023-05-02T22:23:25.894Z,12.90
2023-05-02T22:26:09.098Z,14.20
2023-05-02T22:28:37.461Z,13.03
2023-05-02T22:31:09.360Z,12.63
2023-05-02T22:33:48.339Z,12.87
2023-05-02T22:36:20.421Z,12.10
2023-05-02T22:38:53.225Z,11.87
2023-05-02T22:41:24.975Z,11.70
2023-05-02T22:43:58.060Z,13.10
2023-05-02T22:46:26.907Z,12.57
2023-05-02T22:48:59.190Z,12.97
2023-05-02T22:51:33.542Z,12.27
2023-05-02T22:54:09.393Z,12.07
2023-05-02T22:56:46.936Z,11.77
2023-05-02T22:59:19.493Z,11.50
2023-05-02T23:01:51.471Z,11.30
2023-05-02T23:04:25.841Z,12.37
2023-05-02T23:06:58.294Z,11.40
2023-05-02T23:09:26.710Z,12.20
2023-05-02T23:11:59.477Z,12.10
2023-05-02T23:14:27.608Z,11.50
2023-05-02T23:16:59.314Z,14.80
2023-05-02T23:19:29.726Z,12.20
2023-05-02T23:22:00.922Z,12.10
2023-05-02T23:24:32.664Z,11.60
2023-05-02T23:27:16.362Z,11.97
2023-05-02T23:29:46.120Z,11.40
2023-05-02T23:32:19.100Z,13.00
2023-05-02T23:34:49.821Z,12.53
2023-05-02T23:37:18.634Z,12.30
2023-05-02T23:39:50.965Z,12.60
2023-05-02T23:42:25.794Z,13.47
2023-05-02T23:44:59.991Z,13.33
2023-05-02T23:47:33.925Z,12.70
2023-05-02T23:50:03.399Z,12.97
2023-05-02T23:52:32.586Z,12.97
2023-05-02T23:55:02.243Z,14.37
2023-05-02T23:57:45.862Z,13.00
